createdAt,value
2022-11-21T00:00:52.014Z,39.85
2022-11-21T00:03:19.579Z,37.33
2022-11-21T00:05:47.878Z,36.55
2022-11-21T00:08:24.797Z,37.95
2022-11-21T00:10:52.718Z,38.47
2022-11-21T00:13:20.975Z,36.25
2022-11-21T00:15:48.893Z,36.67
2022-11-21T00:18:16.499Z,34.17
2022-11-21T00:20:44.404Z,39.42
2022-11-21T00:23:12.362Z,38.00
2022-11-21T00:25:39.955Z,38.25
2022-11-21T00:28:07.671Z,38.40
2022-11-21T00:30:41.465Z,40.47
2022-11-21T00:33:09.533Z,37.67
2022-11-21T00:35:37.120Z,38.67
2022-11-21T00:38:04.740Z,40.15
2022-11-21T00:40:37.745Z,39.33
2022-11-21T00:43:05.587Z,37.97
2022-11-21T00:45:33.188Z,40.67
2022-11-21T00:48:00.765Z,37.65
2022-11-21T00:50:28.467Z,35.63
2022-11-21T00:52:56.486Z,37.58
2022-11-21T00:55:24.535Z,37.78
2022-11-21T00:57:52.389Z,36.90
2022-11-21T01:00:20.019Z,37.78
2022-11-21T01:02:47.581Z,38.05
2022-11-21T01:05:15.148Z,37.95
2022-11-21T01:07:42.860Z,35.13
2022-11-21T01:10:10.527Z,39.53
2022-11-21T01:12:38.225Z,36.53
2022-11-21T01:15:06.000Z,37.05
2022-11-21T01:17:34.301Z,40.13
2022-11-21T01:20:01.896Z,36.45
2022-11-21T01:22:29.424Z,38.50
2022-11-21T01:24:56.921Z,37.40
2022-11-21T01:27:24.661Z,38.58
2022-11-21T01:29:52.541Z,39.70
2022-11-21T01:32:20.093Z,37.10
2022-11-21T01:34:47.597Z,35.95
2022-11-21T01:37:15.337Z,37.45
2022-11-21T01:39:42.899Z,43.78
2022-11-21T01:42:13.093Z,38.78
2022-11-21T01:44:48.860Z,37.70
2022-11-21T01:47:16.652Z,36.65
2022-11-21T01:49:44.884Z,40.60
2022-11-21T01:52:17.034Z,40.95
2022-11-21T01:54:47.349Z,39.22
2022-11-21T01:57:19.466Z,38.78
2022-11-21T01:59:50.201Z,36.55
2022-11-21T02:02:21.973Z,38.80
2022-11-21T02:04:50.601Z,38.65
2022-11-21T02:07:20.434Z,38.90
2022-11-21T02:09:50.622Z,37.35
2022-11-21T02:12:27.130Z,42.00
2022-11-21T02:14:55.512Z,38.58
2022-11-21T02:17:23.043Z,38.33
2022-11-21T02:19:58.394Z,42.00
2022-11-21T02:22:31.051Z,35.92
2022-11-21T02:25:07.655Z,40.88
2022-11-21T02:27:35.372Z,39.58
2022-11-21T02:30:03.880Z,42.92
2022-11-21T02:32:38.862Z,36.97
2022-11-21T02:35:06.891Z,37.95
2022-11-21T02:37:35.637Z,37.20
2022-11-21T02:40:07.314Z,37.70
2022-11-21T02:42:46.871Z,36.00
2022-11-21T02:45:26.254Z,35.05
2022-11-21T02:47:59.420Z,35.47
2022-11-21T02:50:32.584Z,36.03
2022-11-21T02:53:09.133Z,34.70
2022-11-21T02:58:05.499Z,31.38
2022-11-21T03:00:34.301Z,36.58
2022-11-21T03:03:01.930Z,32.70
2022-11-21T03:05:29.522Z,34.38
2022-11-21T03:07:57.175Z,32.15
2022-11-21T03:10:25.004Z,33.15
2022-11-21T03:13:00.711Z,34.75
2022-11-21T03:15:30.053Z,37.22
2022-11-21T03:17:57.833Z,34.97
2022-11-21T03:20:25.496Z,34.03
2022-11-21T03:22:53.623Z,38.28
2022-11-21T03:25:21.317Z,37.75
2022-11-21T03:27:53.339Z,31.85
2022-11-21T03:30:21.656Z,32.13
2022-11-21T03:32:49.338Z,37.60
2022-11-21T03:35:17.544Z,31.90
2022-11-21T03:37:45.279Z,30.98
2022-11-21T03:40:13.121Z,32.28
2022-11-21T03:42:40.651Z,34.53
2022-11-21T03:45:08.494Z,36.42
2022-11-21T03:47:36.158Z,37.53
2022-11-21T03:50:03.845Z,38.67
2022-11-21T03:52:31.813Z,39.03
2022-11-21T03:54:59.442Z,35.53
2022-11-21T03:57:26.964Z,34.90
2022-11-21T03:59:54.504Z,34.92
2022-11-21T04:02:22.076Z,34.35
2022-11-21T04:04:49.666Z,33.88
2022-11-21T04:07:17.254Z,37.20
2022-11-21T04:09:44.855Z,34.33
2022-11-21T04:12:12.408Z,36.40
2022-11-21T04:14:39.923Z,35.13
2022-11-21T04:17:07.470Z,34.72
2022-11-21T04:19:34.988Z,34.67
2022-11-21T04:22:02.629Z,34.35
2022-11-21T04:24:30.588Z,31.77
2022-11-21T04:26:58.303Z,31.55
2022-11-21T04:29:25.853Z,32.90
2022-11-21T04:31:53.384Z,30.92
2022-11-21T04:34:20.979Z,32.92
2022-11-21T04:36:48.585Z,32.45
2022-11-21T04:39:16.155Z,32.55
2022-11-21T04:41:43.712Z,34.05
2022-11-21T04:44:11.235Z,33.28
2022-11-21T04:46:38.799Z,34.30
2022-11-21T04:49:06.326Z,36.80
2022-11-21T04:51:33.875Z,34.58
2022-11-21T04:54:01.405Z,35.67
2022-11-21T04:56:28.998Z,33.72
2022-11-21T04:58:56.562Z,33.85
2022-11-21T05:01:24.138Z,31.42
2022-11-21T05:03:52.964Z,30.52
2022-11-21T05:06:20.549Z,31.48
2022-11-21T05:08:52.740Z,29.00
2022-11-21T05:11:40.353Z,32.50
2022-11-21T05:14:07.871Z,28.88
2022-11-21T05:16:35.839Z,28.60
2022-11-21T05:19:03.617Z,29.48
2022-11-21T05:21:31.206Z,28.63
2022-11-21T05:23:58.809Z,29.95
2022-11-21T05:26:26.352Z,26.42
2022-11-21T05:28:53.917Z,25.88
2022-11-21T05:31:21.464Z,32.58
2022-11-21T05:33:48.992Z,24.45
2022-11-21T05:36:16.555Z,24.65
2022-11-21T05:38:44.119Z,26.80
2022-11-21T05:41:11.646Z,24.73
2022-11-21T05:43:48.122Z,24.63
2022-11-21T05:48:43.282Z,23.60
2022-11-21T05:51:10.860Z,22.52
2022-11-21T05:53:38.672Z,26.20
2022-11-21T05:56:07.282Z,25.13
2022-11-21T05:58:35.076Z,25.65
2022-11-21T06:01:03.007Z,30.95
2022-11-21T06:03:32.860Z,29.05
2022-11-21T06:06:06.601Z,30.92
2022-11-21T06:08:35.595Z,26.58
2022-11-21T06:11:03.724Z,27.10
2022-11-21T06:13:33.568Z,26.65
2022-11-21T06:16:01.123Z,27.23
2022-11-21T06:18:29.534Z,26.65
2022-11-21T06:21:01.714Z,26.08
2022-11-21T06:23:29.247Z,27.95
2022-11-21T06:25:58.204Z,24.58
2022-11-21T06:28:26.701Z,28.88
2022-11-21T06:30:54.362Z,28.25
2022-11-21T06:33:21.919Z,25.40
2022-11-21T06:35:49.544Z,26.55
2022-11-21T06:38:18.780Z,30.75
2022-11-21T06:40:46.732Z,27.40
2022-11-21T06:43:14.555Z,35.53
2022-11-21T06:45:42.155Z,33.45
2022-11-21T06:48:09.761Z,28.90
2022-11-21T06:50:38.643Z,29.45
2022-11-21T06:53:06.247Z,27.27
2022-11-21T06:55:33.791Z,26.95
2022-11-21T06:58:01.310Z,31.48
2022-11-21T07:00:28.865Z,27.88
2022-11-21T07:03:03.152Z,28.33
2022-11-21T07:05:31.814Z,31.42
2022-11-21T07:08:03.203Z,24.40
2022-11-21T07:10:31.247Z,24.60
2022-11-21T07:13:19.820Z,20.38
2022-11-21T07:15:48.040Z,22.95
2022-11-21T07:18:15.822Z,18.33
2022-11-21T07:20:43.606Z,20.90
2022-11-21T07:23:11.129Z,22.42
2022-11-21T07:25:39.665Z,19.67
2022-11-21T07:28:07.993Z,19.92
2022-11-21T07:30:36.436Z,19.95
2022-11-21T07:33:05.620Z,18.15
2022-11-21T07:35:34.320Z,20.25
2022-11-21T07:38:02.171Z,17.50
2022-11-21T07:40:29.961Z,17.15
2022-11-21T07:43:02.813Z,18.38
2022-11-21T07:45:32.306Z,21.80
2022-11-21T07:48:00.714Z,21.05
2022-11-21T07:50:28.820Z,21.13
2022-11-21T07:52:59.760Z,21.42
2022-11-21T07:55:29.668Z,19.38
2022-11-21T07:58:08.264Z,19.33
2022-11-21T08:00:37.905Z,20.00
2022-11-21T08:03:06.880Z,20.23
2022-11-21T08:05:38.229Z,18.38
2022-11-21T08:08:09.423Z,21.38
2022-11-21T08:10:41.658Z,21.08
2022-11-21T08:13:09.505Z,21.92
2022-11-21T08:15:37.384Z,20.30
2022-11-21T08:18:08.741Z,20.08
2022-11-21T08:20:36.321Z,21.60
2022-11-21T08:23:04.156Z,20.23
2022-11-21T08:25:31.741Z,22.73
2022-11-21T08:27:59.885Z,25.15
2022-11-21T08:30:27.446Z,23.35
2022-11-21T08:32:55.029Z,27.65
2022-11-21T08:35:22.733Z,26.17
2022-11-21T08:37:50.324Z,23.30
2022-11-21T08:40:18.027Z,23.02
2022-11-21T08:42:45.635Z,21.05
2022-11-21T08:45:13.229Z,22.20
2022-11-21T08:47:41.061Z,28.33
2022-11-21T08:50:09.397Z,25.55
2022-11-21T08:52:37.087Z,28.10
2022-11-21T08:55:04.801Z,26.60
2022-11-21T08:57:32.330Z,29.50
2022-11-21T08:59:59.849Z,29.50
2022-11-21T09:02:27.479Z,29.90
2022-11-21T09:04:54.994Z,36.33
2022-11-21T09:07:22.576Z,39.33
2022-11-21T09:09:50.115Z,45.03
2022-11-21T09:12:17.621Z,38.50
2022-11-21T09:15:03.793Z,39.15
2022-11-21T09:17:50.203Z,39.97
2022-11-21T09:20:17.810Z,41.70
2022-11-21T09:22:45.425Z,42.10
2022-11-21T09:25:12.958Z,45.13
2022-11-21T09:27:40.526Z,41.90
2022-11-21T09:30:08.371Z,40.70
2022-11-21T09:32:36.966Z,41.45
2022-11-21T09:35:04.937Z,45.58
2022-11-21T09:37:37.297Z,43.20
2022-11-21T09:40:08.283Z,42.22
2022-11-21T09:42:54.734Z,45.22
2022-11-21T09:45:37.708Z,39.03
2022-11-21T09:48:09.932Z,47.58
2022-11-21T09:50:40.041Z,45.05
2022-11-21T09:53:10.699Z,43.17
2022-11-21T09:55:38.370Z,41.53
2022-11-21T09:58:07.494Z,43.63
2022-11-21T10:00:35.168Z,47.67
2022-11-21T10:03:03.209Z,42.05
2022-11-21T10:05:36.881Z,48.60
2022-11-21T10:08:24.888Z,46.67
2022-11-21T10:11:16.077Z,43.80
2022-11-21T10:14:05.447Z,47.05
2022-11-21T10:16:52.384Z,49.33
2022-11-21T10:19:19.938Z,54.05
2022-11-21T10:21:50.554Z,48.85
2022-11-21T10:24:36.603Z,47.83
2022-11-21T10:27:08.603Z,50.35
2022-11-21T10:29:39.515Z,46.75
2022-11-21T10:32:13.970Z,47.72
2022-11-21T10:34:41.503Z,47.63
2022-11-21T10:37:16.228Z,48.75
2022-11-21T10:39:50.644Z,47.55
2022-11-21T10:42:24.882Z,46.72
2022-11-21T10:45:11.623Z,49.75
2022-11-21T10:47:39.210Z,48.33
2022-11-21T10:50:09.686Z,48.80
2022-11-21T10:52:40.580Z,52.33
2022-11-21T10:55:10.027Z,48.65
2022-11-21T10:57:40.519Z,50.30
2022-11-21T11:00:14.297Z,49.05
2022-11-21T11:02:43.065Z,47.00
2022-11-21T11:05:18.514Z,52.83
2022-11-21T11:08:05.057Z,53.50
2022-11-21T11:10:33.931Z,50.55
2022-11-21T11:13:50.818Z,53.25
2022-11-21T11:16:16.113Z,61.83
2022-11-21T11:18:48.638Z,54.58
2022-11-21T11:21:23.558Z,56.67
2022-11-21T11:23:52.153Z,62.30
2022-11-21T11:26:27.679Z,72.03
2022-11-21T11:29:07.858Z,73.03
2022-11-21T11:31:42.247Z,68.40
2022-11-21T11:34:13.810Z,63.42
2022-11-21T11:36:45.133Z,64.18
2022-11-21T11:39:23.426Z,66.40
2022-11-21T11:42:28.416Z,61.90
2022-11-21T11:45:32.784Z,64.72
2022-11-21T11:48:01.241Z,68.80
2022-11-21T11:50:43.974Z,60.63
2022-11-21T11:53:17.444Z,59.58
2022-11-21T11:56:11.089Z,62.85
2022-11-21T11:59:05.100Z,57.83
2022-11-21T12:01:59.397Z,61.67
2022-11-21T12:04:30.991Z,59.97
2022-11-21T12:10:06.932Z,55.78
2022-11-21T12:12:42.665Z,55.05
2022-11-21T12:15:31.693Z,58.67
2022-11-21T12:18:17.912Z,55.30
2022-11-21T12:20:55.054Z,57.53
2022-11-21T12:23:23.990Z,59.25
2022-11-21T12:26:05.788Z,55.55
2022-11-21T12:28:36.153Z,59.80
2022-11-21T12:31:10.027Z,56.92
2022-11-21T12:33:43.528Z,57.35
2022-11-21T12:36:18.240Z,54.03
2022-11-21T12:38:49.029Z,53.33
2022-11-21T12:41:35.576Z,55.95
2022-11-21T12:44:32.458Z,57.50
2022-11-21T12:47:00.143Z,55.90
2022-11-21T12:49:56.330Z,51.05
2022-11-21T12:53:00.640Z,63.60
2022-11-21T12:55:39.036Z,52.38
2022-11-21T12:58:30.962Z,62.08
2022-11-21T13:01:10.038Z,64.55
2022-11-21T13:03:57.566Z,63.20
2022-11-21T13:06:37.105Z,59.15
2022-11-21T13:09:06.672Z,58.95
2022-11-21T13:11:58.606Z,59.65
2022-11-21T13:14:28.947Z,61.28
2022-11-21T13:17:11.583Z,62.72
2022-11-21T13:19:50.928Z,64.65
2022-11-21T13:22:36.908Z,62.58
2022-11-21T13:25:10.689Z,62.78
2022-11-21T13:27:41.885Z,61.45
2022-11-21T13:30:10.450Z,63.33
2022-11-21T13:32:44.890Z,63.42
2022-11-21T13:35:15.451Z,68.30
2022-11-21T13:38:04.655Z,64.13
2022-11-21T13:40:39.987Z,79.82
2022-11-21T13:46:02.036Z,72.90
2022-11-21T13:48:34.595Z,72.95
2022-11-21T13:51:08.415Z,67.72
2022-11-21T13:53:35.919Z,89.55
2022-11-21T13:56:11.867Z,62.28
2022-11-21T13:58:54.675Z,62.25
2022-11-21T14:01:41.193Z,59.65
2022-11-21T14:04:08.827Z,60.65
2022-11-21T14:06:37.231Z,60.90
2022-11-21T14:09:10.342Z,57.35
2022-11-21T14:11:42.347Z,59.17
2022-11-21T14:14:10.863Z,62.17
2022-11-21T14:16:43.875Z,64.45
2022-11-21T14:19:18.950Z,59.95
2022-11-21T14:21:47.298Z,65.90
2022-11-21T14:24:17.305Z,66.55
2022-11-21T14:26:47.311Z,70.03
2022-11-21T14:29:35.233Z,69.72
2022-11-21T14:32:02.754Z,74.85
2022-11-21T14:34:31.689Z,71.60
2022-11-21T14:37:05.629Z,90.93
2022-11-21T14:39:44.380Z,69.18
2022-11-21T14:42:16.929Z,83.88
2022-11-21T14:44:44.857Z,70.85
2022-11-21T14:47:25.882Z,65.70
2022-11-21T14:49:55.456Z,67.50
2022-11-21T14:52:27.739Z,69.00
2022-11-21T14:55:28.637Z,73.22
2022-11-21T14:57:47.172Z,68.30
2022-11-21T15:03:18.376Z,75.50
2022-11-21T15:06:01.959Z,76.65
2022-11-21T15:09:06.107Z,78.80
2022-11-21T15:11:22.636Z,81.88
2022-11-21T15:14:14.397Z,84.15
2022-11-21T15:16:38.963Z,84.28
2022-11-21T15:19:10.456Z,88.03
2022-11-21T15:21:38.292Z,83.63
2022-11-21T15:24:40.167Z,83.65
2022-11-21T15:27:26.493Z,83.90
2022-11-21T15:30:06.518Z,82.82
2022-11-21T15:32:34.084Z,85.80
2022-11-21T15:35:21.573Z,81.47
2022-11-21T15:37:50.050Z,83.00
2022-11-21T15:40:19.791Z,89.35
2022-11-21T15:42:47.694Z,90.00
2022-11-21T15:45:19.766Z,88.00
2022-11-21T15:47:48.122Z,96.68
2022-11-21T15:50:16.570Z,94.90
2022-11-21T15:52:44.960Z,98.35
2022-11-21T15:55:24.662Z,91.35
2022-11-21T15:57:52.214Z,102.50
2022-11-21T16:00:19.891Z,101.78
2022-11-21T16:02:47.648Z,101.95
2022-11-21T16:05:15.781Z,107.97
2022-11-21T16:07:43.373Z,105.95
2022-11-21T16:10:19.749Z,108.30
2022-11-21T16:12:49.220Z,109.50
2022-11-21T16:15:16.910Z,106.80
2022-11-21T16:17:45.603Z,163.23
2022-11-21T16:20:13.794Z,122.03
2022-11-21T16:22:45.864Z,111.93
2022-11-21T16:25:15.005Z,106.32
2022-11-21T16:27:42.574Z,105.45
2022-11-21T16:30:10.301Z,108.35
2022-11-21T16:32:37.848Z,105.13
2022-11-21T16:35:05.775Z,106.15
2022-11-21T16:37:33.624Z,105.68
2022-11-21T16:40:01.179Z,100.70
2022-11-21T16:42:28.797Z,102.93
2022-11-21T16:44:56.334Z,96.90
2022-11-21T16:47:23.986Z,93.78
2022-11-21T16:49:51.553Z,93.38
2022-11-21T16:52:19.126Z,85.22
2022-11-21T16:54:47.197Z,83.13
2022-11-21T16:57:14.912Z,81.15
2022-11-21T16:59:42.447Z,80.03
2022-11-21T17:02:10.356Z,78.95
2022-11-21T17:04:37.972Z,74.38
2022-11-21T17:07:05.862Z,73.05
2022-11-21T17:09:33.570Z,73.38
2022-11-21T17:12:01.189Z,72.93
2022-11-21T17:14:29.142Z,73.60
2022-11-21T17:16:58.465Z,74.03
2022-11-21T17:19:26.498Z,73.40
2022-11-21T17:21:54.088Z,71.60
2022-11-21T17:24:21.825Z,75.60
2022-11-21T17:26:49.399Z,73.45
2022-11-21T17:29:17.010Z,73.07
2022-11-21T17:31:44.665Z,70.15
2022-11-21T17:34:13.253Z,72.80
2022-11-21T17:36:40.813Z,72.25
2022-11-21T17:39:08.432Z,72.55
2022-11-21T17:41:36.179Z,62.33
2022-11-21T17:44:03.755Z,55.80
2022-11-21T17:46:31.319Z,49.30
2022-11-21T17:48:59.446Z,49.08
2022-11-21T17:51:34.938Z,50.15
2022-11-21T17:54:02.739Z,47.35
2022-11-21T17:56:31.723Z,45.10
2022-11-21T17:58:59.467Z,41.50
2022-11-21T18:01:27.522Z,40.10
2022-11-21T18:03:57.145Z,40.17
2022-11-21T18:06:25.286Z,36.17
2022-11-21T18:08:53.085Z,36.10
2022-11-21T18:11:21.500Z,35.53
2022-11-21T18:13:49.751Z,37.42
2022-11-21T18:16:18.981Z,34.63
2022-11-21T18:18:46.609Z,37.88
2022-11-21T18:21:15.800Z,33.88
2022-11-21T18:23:47.179Z,36.03
2022-11-21T18:26:16.142Z,35.83
2022-11-21T18:28:44.038Z,33.97
2022-11-21T18:31:12.757Z,33.58
2022-11-21T18:33:40.698Z,31.45
2022-11-21T18:36:09.242Z,29.35
2022-11-21T18:38:48.732Z,33.95
2022-11-21T18:41:23.616Z,29.15
2022-11-21T18:43:55.269Z,30.10
2022-11-21T18:46:24.170Z,39.72
2022-11-21T18:49:02.767Z,33.75
2022-11-21T18:51:33.044Z,35.55
2022-11-21T18:54:04.150Z,35.50
2022-11-21T18:56:31.742Z,36.80
2022-11-21T18:58:59.562Z,35.33
2022-11-21T19:01:28.997Z,37.35
2022-11-21T19:03:57.002Z,35.08
2022-11-21T19:06:25.973Z,32.92
2022-11-21T19:08:54.766Z,37.47
2022-11-21T19:11:24.330Z,41.78
2022-11-21T19:13:52.931Z,37.85
2022-11-21T19:16:22.047Z,37.00
2022-11-21T19:19:11.674Z,37.95
2022-11-21T19:21:38.504Z,41.95
2022-11-21T19:24:06.931Z,35.97
2022-11-21T19:26:34.591Z,36.60
2022-11-21T19:29:02.157Z,32.13
2022-11-21T19:31:29.713Z,34.65
2022-11-21T19:33:58.916Z,32.60
2022-11-21T19:36:26.474Z,34.28
2022-11-21T19:38:54.019Z,35.22
2022-11-21T19:41:24.289Z,33.83
2022-11-21T19:43:53.400Z,33.38
2022-11-21T19:46:31.452Z,31.30
2022-11-21T19:48:59.396Z,31.60
2022-11-21T19:51:34.414Z,30.98
2022-11-21T19:54:02.857Z,30.23
2022-11-21T19:56:30.617Z,29.45
2022-11-21T19:58:58.803Z,30.92
2022-11-21T20:01:27.621Z,29.75
2022-11-21T20:03:56.648Z,30.20
2022-11-21T20:06:25.378Z,29.30
2022-11-21T20:09:06.907Z,30.75
2022-11-21T20:11:34.910Z,28.98
2022-11-21T20:14:02.586Z,32.45
2022-11-21T20:16:34.468Z,30.50
2022-11-21T20:19:02.946Z,30.45
2022-11-21T20:21:30.882Z,35.42
2022-11-21T20:23:58.454Z,31.48
2022-11-21T20:26:26.600Z,31.40
2022-11-21T20:28:54.277Z,27.25
2022-11-21T20:31:23.161Z,51.13
2022-11-21T20:33:51.651Z,40.85
2022-11-21T20:36:20.327Z,32.33
2022-11-21T20:38:55.134Z,29.35
2022-11-21T20:41:23.917Z,28.50
2022-11-21T20:46:43.159Z,34.55
2022-11-21T20:49:10.938Z,28.13
2022-11-21T20:54:26.500Z,27.65
2022-11-21T20:56:54.290Z,29.10
2022-11-21T20:59:21.844Z,30.77
2022-11-21T21:01:49.398Z,33.45
2022-11-21T21:04:17.018Z,59.50
2022-11-21T21:06:44.681Z,96.88
2022-11-21T21:09:12.201Z,39.50
2022-11-21T21:11:55.160Z,44.03
2022-11-21T21:14:23.029Z,45.70
2022-11-21T21:16:50.900Z,66.00
2022-11-21T21:19:18.497Z,66.32
2022-11-21T21:21:46.297Z,77.57
2022-11-21T21:24:14.508Z,83.93
2022-11-21T21:26:46.482Z,86.30
2022-11-21T21:29:15.923Z,83.85
2022-11-21T21:31:50.105Z,93.55
2022-11-21T21:34:19.167Z,97.80
2022-11-21T21:36:47.077Z,98.68
2022-11-21T21:39:14.688Z,101.22
2022-11-21T21:41:46.405Z,96.88
2022-11-21T21:44:14.826Z,97.95
2022-11-21T21:46:42.347Z,93.93
2022-11-21T21:49:09.931Z,96.68
2022-11-21T21:51:38.078Z,96.35
2022-11-21T21:54:06.590Z,96.07
2022-11-21T21:56:34.240Z,98.95
2022-11-21T21:59:02.965Z,95.32
2022-11-21T22:01:31.949Z,91.15
2022-11-21T22:04:01.084Z,101.25
2022-11-21T22:06:28.973Z,92.47
2022-11-21T22:08:56.849Z,91.97
2022-11-21T22:11:28.676Z,86.57
2022-11-21T22:13:57.593Z,94.35
2022-11-21T22:16:25.566Z,98.22
2022-11-21T22:18:53.434Z,92.57
2022-11-21T22:21:20.989Z,89.03
2022-11-21T22:24:17.718Z,89.75
2022-11-21T22:26:36.334Z,77.85
2022-11-21T22:29:04.134Z,80.10
2022-11-21T22:31:31.812Z,82.15
2022-11-21T22:33:59.750Z,86.75
2022-11-21T22:36:27.472Z,79.90
2022-11-21T22:38:55.587Z,82.25
2022-11-21T22:41:24.260Z,83.90
2022-11-21T22:43:53.113Z,80.97
2022-11-21T22:46:20.755Z,75.13
2022-11-21T22:48:48.723Z,72.78
2022-11-21T22:51:21.039Z,74.05
2022-11-21T22:53:48.778Z,72.55
2022-11-21T22:56:17.936Z,73.88
2022-11-21T22:58:45.940Z,72.13
2022-11-21T23:01:17.501Z,72.05
2022-11-21T23:03:45.338Z,70.97
2022-11-21T23:06:14.053Z,75.82
2022-11-21T23:08:42.159Z,76.70
2022-11-21T23:11:21.500Z,75.72
2022-11-21T23:13:49.418Z,74.82
2022-11-21T23:16:17.347Z,74.35
2022-11-21T23:18:45.264Z,81.80
2022-11-21T23:21:13.279Z,79.10
2022-11-21T23:23:44.003Z,267.55
2022-11-21T23:26:11.857Z,168.32
2022-11-21T23:28:39.733Z,65.32
2022-11-21T23:31:07.272Z,70.78
2022-11-21T23:33:34.786Z,76.38
2022-11-21T23:36:17.775Z,74.90
2022-11-21T23:38:45.322Z,62.95
2022-11-21T23:41:12.863Z,71.57
2022-11-21T23:43:40.363Z,75.50
2022-11-21T23:46:10.762Z,69.20
2022-11-21T23:48:38.280Z,67.07
2022-11-21T23:51:07.161Z,64.18
2022-11-21T23:53:34.768Z,63.08
2022-11-21T23:56:02.395Z,54.22
2022-11-21T23:58:29.950Z,53.00
